sensor_id;sensor_type;location;lat;lon;timestamp;P1;durP1;ratioP1;P2;durP2;ratioP2
9214;SDS011;4642;51.364;6.788;2023-10-09T00:01:49;30.40;;;16.53;;
9214;SDS011;4642;51.364;6.788;2023-10-09T00:04:16;28.60;;;16.87;;
9214;SDS011;4642;51.364;6.788;2023-10-09T00:06:42;37.10;;;18.33;;
9214;SDS011;4642;51.364;6.788;2023-10-09T00:09:08;34.17;;;17.83;;
9214;SDS011;4642;51.364;6.788;2023-10-09T00:11:49;25.53;;;15.40;;
9214;SDS011;4642;51.364;6.788;2023-10-09T00:14:22;34.03;;;17.03;;
9214;SDS011;4642;51.364;6.788;2023-10-09T00:16:49;34.13;;;16.23;;
9214;SDS011;4642;51.364;6.788;2023-10-09T00:19:21;29.80;;;15.47;;
9214;SDS011;4642;51.364;6.788;2023-10-09T00:21:55;25.40;;;14.70;;
9214;SDS011;4642;51.364;6.788;2023-10-09T00:24:23;29.60;;;15.23;;
9214;SDS011;4642;51.364;6.788;2023-10-09T00:26:52;24.73;;;14.87;;
9214;SDS011;4642;51.364;6.788;2023-10-09T00:29:36;23.07;;;15.10;;
9214;SDS011;4642;51.364;6.788;2023-10-09T00:32:07;26.40;;;15.87;;
9214;SDS011;4642;51.364;6.788;2023-10-09T00:34:40;29.60;;;14.77;;
9214;SDS011;4642;51.364;6.788;2023-10-09T00:37:07;23.17;;;14.10;;
9214;SDS011;4642;51.364;6.788;2023-10-09T00:39:47;24.13;;;13.97;;
9214;SDS011;4642;51.364;6.788;2023-10-09T00:42:14;26.07;;;14.20;;
9214;SDS011;4642;51.364;6.788;2023-10-09T00:44:51;24.20;;;13.60;;
9214;SDS011;4642;51.364;6.788;2023-10-09T00:47:16;24.73;;;15.17;;
9214;SDS011;4642;51.364;6.788;2023-10-09T00:49:50;20.70;;;13.57;;
9214;SDS011;4642;51.364;6.788;2023-10-09T00:52:35;24.93;;;13.63;;
9214;SDS011;4642;51.364;6.788;2023-10-09T00:55:09;26.27;;;13.13;;
9214;SDS011;4642;51.364;6.788;2023-10-09T00:57:44;24.00;;;13.67;;
9214;SDS011;4642;51.364;6.788;2023-10-09T01:00:18;28.23;;;12.53;;
9214;SDS011;4642;51.364;6.788;2023-10-09T01:03:02;20.50;;;10.83;;
9214;SDS011;4642;51.364;6.788;2023-10-09T01:05:47;18.83;;;11.00;;
9214;SDS011;4642;51.364;6.788;2023-10-09T01:08:24;15.67;;;10.53;;
9214;SDS011;4642;51.364;6.788;2023-10-09T01:10:55;20.93;;;11.90;;
9214;SDS011;4642;51.364;6.788;2023-10-09T01:13:45;20.40;;;12.37;;
9214;SDS011;4642;51.364;6.788;2023-10-09T01:16:19;23.07;;;11.83;;
9214;SDS011;4642;51.364;6.788;2023-10-09T01:18:50;22.37;;;13.23;;
9214;SDS011;4642;51.364;6.788;2023-10-09T01:21:22;21.70;;;11.80;;
9214;SDS011;4642;51.364;6.788;2023-10-09T01:23:50;21.67;;;12.37;;
9214;SDS011;4642;51.364;6.788;2023-10-09T01:26:46;18.33;;;11.40;;
9214;SDS011;4642;51.364;6.788;2023-10-09T01:29:15;18.30;;;11.87;;
9214;SDS011;4642;51.364;6.788;2023-10-09T01:31:44;21.77;;;11.97;;
9214;SDS011;4642;51.364;6.788;2023-10-09T01:34:17;21.23;;;12.37;;
9214;SDS011;4642;51.364;6.788;2023-10-09T01:36:44;21.17;;;12.53;;
9214;SDS011;4642;51.364;6.788;2023-10-09T01:39:14;17.97;;;11.60;;
9214;SDS011;4642;51.364;6.788;2023-10-09T01:41:49;16.83;;;11.23;;
9214;SDS011;4642;51.364;6.788;2023-10-09T01:44:17;21.50;;;9.93;;
9214;SDS011;4642;51.364;6.788;2023-10-09T01:46:44;26.03;;;10.70;;
9214;SDS011;4642;51.364;6.788;2023-10-09T01:49:11;18.60;;;10.23;;
9214;SDS011;4642;51.364;6.788;2023-10-09T01:51:46;20.60;;;11.10;;
9214;SDS011;4642;51.364;6.788;2023-10-09T01:54:15;17.77;;;10.63;;
9214;SDS011;4642;51.364;6.788;2023-10-09T01:56:58;19.10;;;10.70;;
9214;SDS011;4642;51.364;6.788;2023-10-09T01:59:30;17.03;;;10.83;;
9214;SDS011;4642;51.364;6.788;2023-10-09T02:01:56;18.00;;;10.00;;
9214;SDS011;4642;51.364;6.788;2023-10-09T02:04:24;21.83;;;11.20;;
9214;SDS011;4642;51.364;6.788;2023-10-09T02:06:49;17.80;;;9.53;;
9214;SDS011;4642;51.364;6.788;2023-10-09T02:09:17;16.57;;;9.37;;
9214;SDS011;4642;51.364;6.788;2023-10-09T02:11:47;20.43;;;9.13;;
9214;SDS011;4642;51.364;6.788;2023-10-09T02:14:13;15.07;;;8.93;;
9214;SDS011;4642;51.364;6.788;2023-10-09T02:16:45;16.70;;;9.83;;
9214;SDS011;4642;51.364;6.788;2023-10-09T02:19:27;15.77;;;9.83;;
9214;SDS011;4642;51.364;6.788;2023-10-09T02:22:02;16.23;;;9.70;;
9214;SDS011;4642;51.364;6.788;2023-10-09T02:24:40;15.50;;;9.77;;
9214;SDS011;4642;51.364;6.788;2023-10-09T02:27:15;16.37;;;9.03;;
9214;SDS011;4642;51.364;6.788;2023-10-09T02:29:59;17.50;;;9.43;;
9214;SDS011;4642;51.364;6.788;2023-10-09T02:32:33;17.43;;;9.80;;
9214;SDS011;4642;51.364;6.788;2023-10-09T02:35:00;15.33;;;9.63;;
9214;SDS011;4642;51.364;6.788;2023-10-09T02:37:34;15.80;;;9.27;;
9214;SDS011;4642;51.364;6.788;2023-10-09T02:40:02;15.23;;;9.27;;
9214;SDS011;4642;51.364;6.788;2023-10-09T02:42:34;17.30;;;9.90;;
9214;SDS011;4642;51.364;6.788;2023-10-09T02:44:59;16.53;;;10.07;;
9214;SDS011;4642;51.364;6.788;2023-10-09T02:47:28;16.37;;;9.60;;
9214;SDS011;4642;51.364;6.788;2023-10-09T02:50:02;16.67;;;9.77;;
9214;SDS011;4642;51.364;6.788;2023-10-09T02:52:34;16.40;;;9.87;;
9214;SDS011;4642;51.364;6.788;2023-10-09T02:55:05;15.63;;;9.93;;
9214;SDS011;4642;51.364;6.788;2023-10-09T02:57:37;16.47;;;10.07;;
9214;SDS011;4642;51.364;6.788;2023-10-09T03:00:06;17.07;;;10.10;;
9214;SDS011;4642;51.364;6.788;2023-10-09T03:02:44;14.03;;;10.17;;
9214;SDS011;4642;51.364;6.788;2023-10-09T03:05:14;16.27;;;10.17;;
9214;SDS011;4642;51.364;6.788;2023-10-09T03:07:40;17.00;;;11.13;;
9214;SDS011;4642;51.364;6.788;2023-10-09T03:10:07;16.67;;;10.40;;
9214;SDS011;4642;51.364;6.788;2023-10-09T03:12:34;22.60;;;10.23;;
9214;SDS011;4642;51.364;6.788;2023-10-09T03:15:00;19.97;;;11.20;;
9214;SDS011;4642;51.364;6.788;2023-10-09T03:17:27;21.17;;;10.67;;
9214;SDS011;4642;51.364;6.788;2023-10-09T03:19:53;18.30;;;11.00;;
9214;SDS011;4642;51.364;6.788;2023-10-09T03:22:19;20.17;;;11.13;;
9214;SDS011;4642;51.364;6.788;2023-10-09T03:24:45;20.57;;;10.90;;
9214;SDS011;4642;51.364;6.788;2023-10-09T03:27:11;18.37;;;10.90;;
9214;SDS011;4642;51.364;6.788;2023-10-09T03:29:38;16.63;;;11.03;;
9214;SDS011;4642;51.364;6.788;2023-10-09T03:32:04;16.07;;;10.43;;
9214;SDS011;4642;51.364;6.788;2023-10-09T03:34:31;17.07;;;10.97;;
9214;SDS011;4642;51.364;6.788;2023-10-09T03:36:57;14.07;;;10.10;;
9214;SDS011;4642;51.364;6.788;2023-10-09T03:39:30;15.67;;;10.03;;
9214;SDS011;4642;51.364;6.788;2023-10-09T03:42:03;14.57;;;10.60;;
9214;SDS011;4642;51.364;6.788;2023-10-09T03:44:30;17.00;;;11.40;;
9214;SDS011;4642;51.364;6.788;2023-10-09T03:46:58;16.83;;;10.60;;
9214;SDS011;4642;51.364;6.788;2023-10-09T03:49:24;24.70;;;11.60;;
9214;SDS011;4642;51.364;6.788;2023-10-09T03:51:51;18.23;;;10.73;;
9214;SDS011;4642;51.364;6.788;2023-10-09T03:54:17;18.23;;;10.83;;
9214;SDS011;4642;51.364;6.788;2023-10-09T03:56:47;17.57;;;10.50;;
9214;SDS011;4642;51.364;6.788;2023-10-09T03:59:15;18.87;;;10.30;;
9214;SDS011;4642;51.364;6.788;2023-10-09T04:01:47;15.93;;;10.53;;
9214;SDS011;4642;51.364;6.788;2023-10-09T04:04:15;17.60;;;9.90;;
9214;SDS011;4642;51.364;6.788;2023-10-09T04:06:41;16.53;;;10.33;;
9214;SDS011;4642;51.364;6.788;2023-10-09T04:09:07;17.30;;;9.70;;
9214;SDS011;4642;51.364;6.788;2023-10-09T04:11:54;15.10;;;10.33;;
9214;SDS011;4642;51.364;6.788;2023-10-09T04:14:35;17.30;;;10.50;;
9214;SDS011;4642;51.364;6.788;2023-10-09T04:17:33;13.73;;;9.93;;
9214;SDS011;4642;51.364;6.788;2023-10-09T04:20:00;17.13;;;10.33;;
9214;SDS011;4642;51.364;6.788;2023-10-09T04:22:44;18.93;;;10.77;;
9214;SDS011;4642;51.364;6.788;2023-10-09T04:25:19;15.40;;;9.77;;
9214;SDS011;4642;51.364;6.788;2023-10-09T04:27:58;13.53;;;9.00;;
9214;SDS011;4642;51.364;6.788;2023-10-09T04:30:39;14.37;;;10.17;;
9214;SDS011;4642;51.364;6.788;2023-10-09T04:33:07;13.90;;;9.33;;
9214;SDS011;4642;51.364;6.788;2023-10-09T04:35:45;17.13;;;10.73;;
9214;SDS011;4642;51.364;6.788;2023-10-09T04:38:31;13.57;;;9.10;;
9214;SDS011;4642;51.364;6.788;2023-10-09T04:41:04;15.53;;;9.60;;
9214;SDS011;4642;51.364;6.788;2023-10-09T04:43:30;15.90;;;9.73;;
9214;SDS011;4642;51.364;6.788;2023-10-09T04:45:58;13.13;;;8.80;;
9214;SDS011;4642;51.364;6.788;2023-10-09T04:48:48;14.90;;;10.37;;
9214;SDS011;4642;51.364;6.788;2023-10-09T04:51:17;12.33;;;8.40;;
9214;SDS011;4642;51.364;6.788;2023-10-09T04:53:46;16.57;;;9.63;;
9214;SDS011;4642;51.364;6.788;2023-10-09T04:56:15;16.20;;;9.67;;
9214;SDS011;4642;51.364;6.788;2023-10-09T04:58:41;14.70;;;9.93;;
9214;SDS011;4642;51.364;6.788;2023-10-09T05:01:07;15.60;;;10.00;;
9214;SDS011;4642;51.364;6.788;2023-10-09T05:03:40;22.23;;;10.43;;
9214;SDS011;4642;51.364;6.788;2023-10-09T05:06:05;14.63;;;10.50;;
9214;SDS011;4642;51.364;6.788;2023-10-09T05:08:50;15.50;;;9.80;;
9214;SDS011;4642;51.364;6.788;2023-10-09T05:11:21;15.60;;;9.83;;
9214;SDS011;4642;51.364;6.788;2023-10-09T05:14:00;17.60;;;9.70;;
9214;SDS011;4642;51.364;6.788;2023-10-09T05:16:38;19.37;;;10.20;;
9214;SDS011;4642;51.364;6.788;2023-10-09T05:19:19;15.23;;;9.53;;
9214;SDS011;4642;51.364;6.788;2023-10-09T05:21:58;12.87;;;9.20;;
9214;SDS011;4642;51.364;6.788;2023-10-09T05:24:29;14.53;;;9.30;;
9214;SDS011;4642;51.364;6.788;2023-10-09T05:27:07;15.00;;;10.10;;
9214;SDS011;4642;51.364;6.788;2023-10-09T05:30:05;15.60;;;8.83;;
9214;SDS011;4642;51.364;6.788;2023-10-09T05:32:55;11.47;;;8.53;;
9214;SDS011;4642;51.364;6.788;2023-10-09T05:35:23;13.40;;;9.80;;
9214;SDS011;4642;51.364;6.788;2023-10-09T05:38:05;15.13;;;9.37;;
9214;SDS011;4642;51.364;6.788;2023-10-09T05:40:49;15.23;;;9.17;;
9214;SDS011;4642;51.364;6.788;2023-10-09T05:43:18;17.27;;;9.67;;
9214;SDS011;4642;51.364;6.788;2023-10-09T05:46:03;14.40;;;9.20;;
9214;SDS011;4642;51.364;6.788;2023-10-09T05:48:35;12.33;;;8.57;;
9214;SDS011;4642;51.364;6.788;2023-10-09T05:51:04;13.30;;;8.93;;
9214;SDS011;4642;51.364;6.788;2023-10-09T05:53:37;19.23;;;8.53;;
9214;SDS011;4642;51.364;6.788;2023-10-09T05:56:23;15.70;;;8.80;;
9214;SDS011;4642;51.364;6.788;2023-10-09T05:59:07;12.93;;;8.57;;
9214;SDS011;4642;51.364;6.788;2023-10-09T06:01:51;11.60;;;8.07;;
9214;SDS011;4642;51.364;6.788;2023-10-09T06:04:32;13.87;;;7.70;;
9214;SDS011;4642;51.364;6.788;2023-10-09T06:07:19;12.60;;;7.87;;
9214;SDS011;4642;51.364;6.788;2023-10-09T06:09:49;11.67;;;7.47;;
9214;SDS011;4642;51.364;6.788;2023-10-09T06:12:17;13.87;;;7.27;;
9214;SDS011;4642;51.364;6.788;2023-10-09T06:14:58;11.03;;;7.20;;
9214;SDS011;4642;51.364;6.788;2023-10-09T06:17:43;12.27;;;7.13;;
9214;SDS011;4642;51.364;6.788;2023-10-09T06:20:15;11.90;;;7.63;;
9214;SDS011;4642;51.364;6.788;2023-10-09T06:22:59;10.10;;;7.37;;
9214;SDS011;4642;51.364;6.788;2023-10-09T06:25:40;12.20;;;8.10;;
9214;SDS011;4642;51.364;6.788;2023-10-09T06:28:15;11.90;;;8.07;;
9214;SDS011;4642;51.364;6.788;2023-10-09T06:30:44;11.43;;;7.70;;
9214;SDS011;4642;51.364;6.788;2023-10-09T06:33:12;15.67;;;8.73;;
9214;SDS011;4642;51.364;6.788;2023-10-09T06:35:54;12.90;;;9.07;;
9214;SDS011;4642;51.364;6.788;2023-10-09T06:38:20;14.37;;;9.27;;
9214;SDS011;4642;51.364;6.788;2023-10-09T06:40:58;16.23;;;9.73;;
9214;SDS011;4642;51.364;6.788;2023-10-09T06:43:29;14.93;;;9.20;;
9214;SDS011;4642;51.364;6.788;2023-10-09T06:45:55;15.07;;;9.23;;
9214;SDS011;4642;51.364;6.788;2023-10-09T06:48:40;11.90;;;8.30;;
9214;SDS011;4642;51.364;6.788;2023-10-09T06:51:10;13.53;;;9.13;;
9214;SDS011;4642;51.364;6.788;2023-10-09T06:53:51;12.37;;;8.70;;
9214;SDS011;4642;51.364;6.788;2023-10-09T06:56:17;14.53;;;9.80;;
9214;SDS011;4642;51.364;6.788;2023-10-09T06:59:02;13.83;;;9.37;;
9214;SDS011;4642;51.364;6.788;2023-10-09T07:01:39;13.97;;;8.90;;
9214;SDS011;4642;51.364;6.788;2023-10-09T07:04:14;15.17;;;9.43;;
9214;SDS011;4642;51.364;6.788;2023-10-09T07:07:06;15.67;;;10.30;;
9214;SDS011;4642;51.364;6.788;2023-10-09T07:09:52;13.27;;;9.53;;
9214;SDS011;4642;51.364;6.788;2023-10-09T07:12:36;15.77;;;10.40;;
9214;SDS011;4642;51.364;6.788;2023-10-09T07:15:07;18.27;;;11.03;;
9214;SDS011;4642;51.364;6.788;2023-10-09T07:17:33;15.03;;;10.43;;
9214;SDS011;4642;51.364;6.788;2023-10-09T07:19:59;15.83;;;11.10;;
9214;SDS011;4642;51.364;6.788;2023-10-09T07:22:37;16.20;;;11.03;;
9214;SDS011;4642;51.364;6.788;2023-10-09T07:25:17;19.50;;;11.30;;
9214;SDS011;4642;51.364;6.788;2023-10-09T07:28:04;15.77;;;11.70;;
9214;SDS011;4642;51.364;6.788;2023-10-09T07:30:43;18.90;;;11.40;;
9214;SDS011;4642;51.364;6.788;2023-10-09T07:33:09;17.60;;;11.53;;
9214;SDS011;4642;51.364;6.788;2023-10-09T07:35:41;18.23;;;11.90;;
9214;SDS011;4642;51.364;6.788;2023-10-09T07:40:51;16.60;;;11.80;;
9214;SDS011;4642;51.364;6.788;2023-10-09T07:43:35;20.37;;;12.17;;
9214;SDS011;4642;51.364;6.788;2023-10-09T07:46:05;20.63;;;12.30;;
9214;SDS011;4642;51.364;6.788;2023-10-09T07:48:58;17.87;;;12.07;;
9214;SDS011;4642;51.364;6.788;2023-10-09T07:51:33;17.73;;;11.93;;
9214;SDS011;4642;51.364;6.788;2023-10-09T07:54:02;18.73;;;12.03;;
9214;SDS011;4642;51.364;6.788;2023-10-09T07:56:37;22.13;;;12.40;;
9214;SDS011;4642;51.364;6.788;2023-10-09T07:59:10;17.90;;;12.07;;
9214;SDS011;4642;51.364;6.788;2023-10-09T08:01:40;20.07;;;12.20;;
9214;SDS011;4642;51.364;6.788;2023-10-09T08:04:39;17.13;;;11.43;;
9214;SDS011;4642;51.364;6.788;2023-10-09T08:07:14;21.30;;;12.23;;
9214;SDS011;4642;51.364;6.788;2023-10-09T08:09:59;15.63;;;11.27;;
9214;SDS011;4642;51.364;6.788;2023-10-09T08:12:44;16.53;;;11.60;;
9214;SDS011;4642;51.364;6.788;2023-10-09T08:15:16;17.57;;;11.73;;
9214;SDS011;4642;51.364;6.788;2023-10-09T08:17:55;18.77;;;10.70;;
9214;SDS011;4642;51.364;6.788;2023-10-09T08:20:28;21.07;;;11.97;;
9214;SDS011;4642;51.364;6.788;2023-10-09T08:23:14;20.27;;;11.73;;
9214;SDS011;4642;51.364;6.788;2023-10-09T08:25:58;20.63;;;11.80;;
9214;SDS011;4642;51.364;6.788;2023-10-09T08:28:39;20.43;;;11.30;;
9214;SDS011;4642;51.364;6.788;2023-10-09T08:31:08;17.50;;;11.43;;
9214;SDS011;4642;51.364;6.788;2023-10-09T08:33:44;16.73;;;11.80;;
9214;SDS011;4642;51.364;6.788;2023-10-09T08:36:24;19.00;;;11.63;;
9214;SDS011;4642;51.364;6.788;2023-10-09T08:38:53;18.73;;;11.17;;
9214;SDS011;4642;51.364;6.788;2023-10-09T08:41:38;18.80;;;11.77;;
9214;SDS011;4642;51.364;6.788;2023-10-09T08:44:04;16.77;;;11.17;;
9214;SDS011;4642;51.364;6.788;2023-10-09T08:46:30;17.83;;;11.27;;
9214;SDS011;4642;51.364;6.788;2023-10-09T08:48:57;16.43;;;11.13;;
9214;SDS011;4642;51.364;6.788;2023-10-09T08:51:24;18.23;;;11.50;;
9214;SDS011;4642;51.364;6.788;2023-10-09T08:53:51;17.53;;;11.60;;
9214;SDS011;4642;51.364;6.788;2023-10-09T08:56:18;15.87;;;10.67;;
9214;SDS011;4642;51.364;6.788;2023-10-09T08:58:52;15.40;;;12.17;;
9214;SDS011;4642;51.364;6.788;2023-10-09T09:01:20;19.33;;;11.90;;
9214;SDS011;4642;51.364;6.788;2023-10-09T09:03:46;17.90;;;12.00;;
9214;SDS011;4642;51.364;6.788;2023-10-09T09:06:13;14.40;;;10.67;;
9214;SDS011;4642;51.364;6.788;2023-10-09T09:08:39;17.37;;;10.97;;
9214;SDS011;4642;51.364;6.788;2023-10-09T09:11:09;15.93;;;11.23;;
9214;SDS011;4642;51.364;6.788;2023-10-09T09:14:00;15.60;;;11.33;;
9214;SDS011;4642;51.364;6.788;2023-10-09T09:16:43;15.03;;;10.37;;
9214;SDS011;4642;51.364;6.788;2023-10-09T09:19:13;16.23;;;10.07;;
9214;SDS011;4642;51.364;6.788;2023-10-09T09:21:49;22.13;;;11.30;;
9214;SDS011;4642;51.364;6.788;2023-10-09T09:24:24;24.87;;;11.80;;
9214;SDS011;4642;51.364;6.788;2023-10-09T09:26:50;16.23;;;10.63;;
9214;SDS011;4642;51.364;6.788;2023-10-09T09:32:09;15.10;;;9.90;;
9214;SDS011;4642;51.364;6.788;2023-10-09T09:34:51;17.53;;;10.67;;
9214;SDS011;4642;51.364;6.788;2023-10-09T09:37:26;15.87;;;9.83;;
9214;SDS011;4642;51.364;6.788;2023-10-09T09:39:59;15.43;;;9.10;;
9214;SDS011;4642;51.364;6.788;2023-10-09T09:42:39;16.33;;;9.40;;
9214;SDS011;4642;51.364;6.788;2023-10-09T09:45:09;14.63;;;9.63;;
9214;SDS011;4642;51.364;6.788;2023-10-09T09:47:36;14.97;;;9.30;;
9214;SDS011;4642;51.364;6.788;2023-10-09T09:50:02;15.37;;;9.17;;
9214;SDS011;4642;51.364;6.788;2023-10-09T09:52:37;14.47;;;8.70;;
9214;SDS011;4642;51.364;6.788;2023-10-09T09:55:09;15.43;;;10.07;;
9214;SDS011;4642;51.364;6.788;2023-10-09T09:57:39;15.17;;;9.57;;
9214;SDS011;4642;51.364;6.788;2023-10-09T10:00:06;14.73;;;9.77;;
9214;SDS011;4642;51.364;6.788;2023-10-09T10:02:51;19.57;;;9.83;;
9214;SDS011;4642;51.364;6.788;2023-10-09T10:05:21;19.17;;;9.97;;
9214;SDS011;4642;51.364;6.788;2023-10-09T10:07:47;14.63;;;9.73;;
9214;SDS011;4642;51.364;6.788;2023-10-09T10:13:14;15.83;;;10.33;;
9214;SDS011;4642;51.364;6.788;2023-10-09T10:18:33;15.63;;;9.30;;
9214;SDS011;4642;51.364;6.788;2023-10-09T10:21:18;11.93;;;9.33;;
9214;SDS011;4642;51.364;6.788;2023-10-09T10:24:01;14.43;;;10.17;;
9214;SDS011;4642;51.364;6.788;2023-10-09T10:26:31;15.83;;;9.80;;
9214;SDS011;4642;51.364;6.788;2023-10-09T10:31:59;13.17;;;9.23;;
9214;SDS011;4642;51.364;6.788;2023-10-09T10:34:52;15.00;;;10.10;;
9214;SDS011;4642;51.364;6.788;2023-10-09T10:37:21;16.13;;;9.53;;
9214;SDS011;4642;51.364;6.788;2023-10-09T10:40:03;16.23;;;8.63;;
9214;SDS011;4642;51.364;6.788;2023-10-09T10:42:51;16.97;;;9.50;;
9214;SDS011;4642;51.364;6.788;2023-10-09T10:45:34;15.50;;;8.47;;
9214;SDS011;4642;51.364;6.788;2023-10-09T10:48:08;15.17;;;9.43;;
9214;SDS011;4642;51.364;6.788;2023-10-09T10:50:59;16.03;;;9.17;;
9214;SDS011;4642;51.364;6.788;2023-10-09T10:53:26;15.17;;;8.57;;
9214;SDS011;4642;51.364;6.788;2023-10-09T10:56:02;22.80;;;9.43;;
9214;SDS011;4642;51.364;6.788;2023-10-09T10:58:38;15.33;;;9.50;;
9214;SDS011;4642;51.364;6.788;2023-10-09T11:01:03;13.63;;;9.60;;
9214;SDS011;4642;51.364;6.788;2023-10-09T11:03:38;13.53;;;8.53;;
9214;SDS011;4642;51.364;6.788;2023-10-09T11:09:05;13.33;;;9.40;;
9214;SDS011;4642;51.364;6.788;2023-10-09T11:11:51;14.73;;;9.40;;
9214;SDS011;4642;51.364;6.788;2023-10-09T11:14:44;16.00;;;9.03;;
9214;SDS011;4642;51.364;6.788;2023-10-09T11:17:15;11.90;;;9.03;;
9214;SDS011;4642;51.364;6.788;2023-10-09T11:19:50;16.10;;;9.20;;
9214;SDS011;4642;51.364;6.788;2023-10-09T11:22:17;15.87;;;9.17;;
9214;SDS011;4642;51.364;6.788;2023-10-09T11:25:01;15.80;;;9.20;;
9214;SDS011;4642;51.364;6.788;2023-10-09T11:27:36;13.90;;;9.53;;
9214;SDS011;4642;51.364;6.788;2023-10-09T11:30:05;12.53;;;8.77;;
9214;SDS011;4642;51.364;6.788;2023-10-09T11:32:35;17.23;;;9.30;;
9214;SDS011;4642;51.364;6.788;2023-10-09T11:35:09;17.77;;;9.53;;
9214;SDS011;4642;51.364;6.788;2023-10-09T11:37:55;16.87;;;9.00;;
9214;SDS011;4642;51.364;6.788;2023-10-09T11:40:27;14.23;;;9.13;;
9214;SDS011;4642;51.364;6.788;2023-10-09T11:43:17;12.43;;;8.57;;
9214;SDS011;4642;51.364;6.788;2023-10-09T11:45:49;17.00;;;8.67;;
9214;SDS011;4642;51.364;6.788;2023-10-09T11:48:21;16.73;;;9.33;;
9214;SDS011;4642;51.364;6.788;2023-10-09T11:51:12;20.87;;;9.30;;
9214;SDS011;4642;51.364;6.788;2023-10-09T11:53:44;14.77;;;10.17;;
9214;SDS011;4642;51.364;6.788;2023-10-09T11:56:13;23.80;;;9.33;;
9214;SDS011;4642;51.364;6.788;2023-10-09T11:58:42;19.33;;;9.10;;
9214;SDS011;4642;51.364;6.788;2023-10-09T12:01:11;17.57;;;9.40;;
9214;SDS011;4642;51.364;6.788;2023-10-09T12:03:48;14.77;;;8.93;;
9214;SDS011;4642;51.364;6.788;2023-10-09T12:06:15;11.97;;;8.50;;
9214;SDS011;4642;51.364;6.788;2023-10-09T12:08:44;20.17;;;9.17;;
9214;SDS011;4642;51.364;6.788;2023-10-09T12:11:16;15.00;;;9.63;;
9214;SDS011;4642;51.364;6.788;2023-10-09T12:13:53;15.43;;;9.47;;
9214;SDS011;4642;51.364;6.788;2023-10-09T12:16:21;20.60;;;9.43;;
9214;SDS011;4642;51.364;6.788;2023-10-09T12:18:53;17.20;;;9.47;;
9214;SDS011;4642;51.364;6.788;2023-10-09T12:21:21;22.13;;;10.10;;
9214;SDS011;4642;51.364;6.788;2023-10-09T12:23:48;17.87;;;10.17;;
9214;SDS011;4642;51.364;6.788;2023-10-09T12:26:14;13.57;;;9.57;;
9214;SDS011;4642;51.364;6.788;2023-10-09T12:28:42;16.30;;;9.70;;
9214;SDS011;4642;51.364;6.788;2023-10-09T12:31:15;18.87;;;10.27;;
9214;SDS011;4642;51.364;6.788;2023-10-09T12:33:45;13.97;;;9.30;;
9214;SDS011;4642;51.364;6.788;2023-10-09T12:36:12;18.80;;;10.40;;
9214;SDS011;4642;51.364;6.788;2023-10-09T12:38:45;14.40;;;9.50;;
9214;SDS011;4642;51.364;6.788;2023-10-09T12:41:15;15.70;;;9.27;;
9214;SDS011;4642;51.364;6.788;2023-10-09T12:43:56;20.47;;;10.77;;
9214;SDS011;4642;51.364;6.788;2023-10-09T12:46:25;17.60;;;9.97;;
9214;SDS011;4642;51.364;6.788;2023-10-09T12:48:53;13.67;;;8.77;;
9214;SDS011;4642;51.364;6.788;2023-10-09T12:51:20;16.30;;;9.47;;
9214;SDS011;4642;51.364;6.788;2023-10-09T12:53:50;17.67;;;9.00;;
9214;SDS011;4642;51.364;6.788;2023-10-09T12:56:22;16.30;;;8.37;;
9214;SDS011;4642;51.364;6.788;2023-10-09T12:58:48;17.90;;;9.47;;
9214;SDS011;4642;51.364;6.788;2023-10-09T13:01:21;14.77;;;8.97;;
9214;SDS011;4642;51.364;6.788;2023-10-09T13:03:47;18.67;;;9.80;;
9214;SDS011;4642;51.364;6.788;2023-10-09T13:06:15;16.03;;;9.87;;
9214;SDS011;4642;51.364;6.788;2023-10-09T13:08:48;16.57;;;9.47;;
9214;SDS011;4642;51.364;6.788;2023-10-09T13:11:14;18.03;;;11.47;;
9214;SDS011;4642;51.364;6.788;2023-10-09T13:13:44;17.73;;;9.80;;
9214;SDS011;4642;51.364;6.788;2023-10-09T13:16:16;23.30;;;11.03;;
9214;SDS011;4642;51.364;6.788;2023-10-09T13:18:48;17.67;;;10.40;;
9214;SDS011;4642;51.364;6.788;2023-10-09T13:21:24;18.27;;;9.77;;
9214;SDS011;4642;51.364;6.788;2023-10-09T13:23:51;17.73;;;10.63;;
9214;SDS011;4642;51.364;6.788;2023-10-09T13:26:20;25.53;;;10.33;;
9214;SDS011;4642;51.364;6.788;2023-10-09T13:28:53;18.77;;;11.47;;
9214;SDS011;4642;51.364;6.788;2023-10-09T13:31:20;20.03;;;11.67;;
9214;SDS011;4642;51.364;6.788;2023-10-09T13:33:46;17.47;;;9.53;;
9214;SDS011;4642;51.364;6.788;2023-10-09T13:36:13;16.27;;;10.67;;
9214;SDS011;4642;51.364;6.788;2023-10-09T13:38:51;17.57;;;12.00;;
9214;SDS011;4642;51.364;6.788;2023-10-09T13:41:43;18.17;;;11.03;;
9214;SDS011;4642;51.364;6.788;2023-10-09T13:44:09;20.30;;;11.83;;
9214;SDS011;4642;51.364;6.788;2023-10-09T13:46:35;15.17;;;9.57;;
9214;SDS011;4642;51.364;6.788;2023-10-09T13:49:06;18.37;;;10.93;;
9214;SDS011;4642;51.364;6.788;2023-10-09T13:51:39;21.93;;;11.37;;
9214;SDS011;4642;51.364;6.788;2023-10-09T13:54:09;17.10;;;11.80;;
9214;SDS011;4642;51.364;6.788;2023-10-09T13:56:53;23.43;;;11.87;;
9214;SDS011;4642;51.364;6.788;2023-10-09T13:59:22;21.00;;;12.10;;
9214;SDS011;4642;51.364;6.788;2023-10-09T14:01:50;19.27;;;11.20;;
9214;SDS011;4642;51.364;6.788;2023-10-09T14:04:19;19.50;;;11.23;;
9214;SDS011;4642;51.364;6.788;2023-10-09T14:06:45;17.33;;;11.87;;
9214;SDS011;4642;51.364;6.788;2023-10-09T14:09:12;15.10;;;10.43;;
9214;SDS011;4642;51.364;6.788;2023-10-09T14:11:54;18.70;;;11.37;;
9214;SDS011;4642;51.364;6.788;2023-10-09T14:14:30;16.50;;;11.40;;
9214;SDS011;4642;51.364;6.788;2023-10-09T14:16:57;19.03;;;13.30;;
9214;SDS011;4642;51.364;6.788;2023-10-09T14:19:23;21.03;;;12.73;;
9214;SDS011;4642;51.364;6.788;2023-10-09T14:21:48;16.73;;;13.10;;
9214;SDS011;4642;51.364;6.788;2023-10-09T14:24:14;16.37;;;12.37;;
9214;SDS011;4642;51.364;6.788;2023-10-09T14:26:40;20.60;;;11.93;;
9214;SDS011;4642;51.364;6.788;2023-10-09T14:29:07;20.87;;;12.80;;
9214;SDS011;4642;51.364;6.788;2023-10-09T14:31:32;18.30;;;11.93;;
9214;SDS011;4642;51.364;6.788;2023-10-09T14:34:04;20.17;;;13.13;;
9214;SDS011;4642;51.364;6.788;2023-10-09T14:36:30;22.87;;;13.87;;
9214;SDS011;4642;51.364;6.788;2023-10-09T14:38:59;19.17;;;12.97;;
9214;SDS011;4642;51.364;6.788;2023-10-09T14:41:26;17.73;;;12.27;;
9214;SDS011;4642;51.364;6.788;2023-10-09T14:43:53;19.40;;;12.23;;
9214;SDS011;4642;51.364;6.788;2023-10-09T14:46:19;20.77;;;13.30;;
9214;SDS011;4642;51.364;6.788;2023-10-09T14:48:50;20.20;;;12.57;;
9214;SDS011;4642;51.364;6.788;2023-10-09T14:51:19;18.03;;;12.60;;
9214;SDS011;4642;51.364;6.788;2023-10-09T14:53:51;21.87;;;13.43;;
9214;SDS011;4642;51.364;6.788;2023-10-09T14:56:22;21.37;;;13.93;;
9214;SDS011;4642;51.364;6.788;2023-10-09T14:58:57;17.90;;;12.87;;
9214;SDS011;4642;51.364;6.788;2023-10-09T15:01:24;23.10;;;13.60;;
9214;SDS011;4642;51.364;6.788;2023-10-09T15:03:53;19.23;;;12.57;;
9214;SDS011;4642;51.364;6.788;2023-10-09T15:06:22;17.87;;;13.37;;
9214;SDS011;4642;51.364;6.788;2023-10-09T15:08:49;20.37;;;13.07;;
9214;SDS011;4642;51.364;6.788;2023-10-09T15:11:14;21.67;;;13.40;;
9214;SDS011;4642;51.364;6.788;2023-10-09T15:13:40;21.73;;;12.93;;
9214;SDS011;4642;51.364;6.788;2023-10-09T15:16:06;21.83;;;12.80;;
9214;SDS011;4642;51.364;6.788;2023-10-09T15:18:32;16.50;;;12.30;;
9214;SDS011;4642;51.364;6.788;2023-10-09T15:20:58;23.30;;;13.10;;
9214;SDS011;4642;51.364;6.788;2023-10-09T15:23:25;19.53;;;12.63;;
9214;SDS011;4642;51.364;6.788;2023-10-09T15:25:51;22.67;;;12.50;;
9214;SDS011;4642;51.364;6.788;2023-10-09T15:28:21;17.97;;;12.57;;
9214;SDS011;4642;51.364;6.788;2023-10-09T15:30:47;22.47;;;13.23;;
9214;SDS011;4642;51.364;6.788;2023-10-09T15:33:14;21.07;;;13.67;;
9214;SDS011;4642;51.364;6.788;2023-10-09T15:35:42;20.80;;;12.33;;
9214;SDS011;4642;51.364;6.788;2023-10-09T15:38:11;18.10;;;12.67;;
9214;SDS011;4642;51.364;6.788;2023-10-09T15:40:38;25.13;;;13.10;;
9214;SDS011;4642;51.364;6.788;2023-10-09T15:43:07;21.33;;;12.97;;
9214;SDS011;4642;51.364;6.788;2023-10-09T15:45:40;20.67;;;13.70;;